Time;durP1;ratioP1;P1;durP2;ratioP2;P2;SDS_P1;SDS_P2;PMS_P1;PMS_P2;Temp;Humidity;BMP_temperature;BMP_pressure;BME280_temperature;BME280_humidity;BME280_pressure;Samples;Min_cycle;Max_cycle;Signal;HPM_P1;HPM_P2
2022/02/16 00:02:04;;;;;;;1.20;0.80;;;7.50;88.60;;;;;;9975536;28;20729;-74
2022/02/16 00:06:55;;;;;;;1.02;0.93;;;7.50;88.40;;;;;;9975878;28;20057;-74
2022/02/16 00:11:45;;;;;;;1.40;0.80;;;7.50;88.40;;;;;;9963722;28;20030;-73
2022/02/16 00:16:36;;;;;;;3.75;1.15;;;7.50;88.40;;;;;;9975487;28;20194;-73
2022/02/16 00:21:27;;;;;;;1.88;0.63;;;7.60;88.30;;;;;;9978385;28;20113;-74
2022/02/16 00:26:17;;;;;;;2.33;1.00;;;7.60;88.30;;;;;;9978866;28;20682;-73
2022/02/16 00:31:08;;;;;;;2.80;0.95;;;7.50;88.20;;;;;;9981128;28;20018;-73
2022/02/16 00:35:59;;;;;;;1.80;0.90;;;7.50;88.30;;;;;;9977786;28;20041;-73
2022/02/16 00:40:49;;;;;;;2.55;0.80;;;7.60;88.20;;;;;;9960484;28;20042;-73
2022/02/16 00:45:40;;;;;;;3.15;2.28;;;7.60;88.20;;;;;;9977900;28;20019;-74
2022/02/16 00:50:31;;;;;;;3.38;1.05;;;7.60;88.20;;;;;;9983608;28;20038;-73
2022/02/16 00:55:21;;;;;;;0.88;0.68;;;7.50;88.30;;;;;;9970325;28;20038;-74
2022/02/16 01:00:13;;;;;;;3.17;0.77;;;7.50;88.30;;;;;;9956854;28;20489;-72
2022/02/16 01:05:04;;;;;;;1.00;0.70;;;7.50;88.30;;;;;;9974138;28;20039;-73
2022/02/16 01:09:55;;;;;;;1.25;0.60;;;7.50;88.40;;;;;;9973037;28;20035;-72
2022/02/16 01:14:45;;;;;;;1.42;0.80;;;7.50;88.40;;;;;;9973389;28;20034;-73
2022/02/16 01:19:36;;;;;;;1.38;0.60;;;7.50;88.50;;;;;;9959447;28;20037;-73
2022/02/16 01:24:26;;;;;;;2.15;0.90;;;7.50;88.60;;;;;;9971292;28;20130;-73
2022/02/16 01:29:17;;;;;;;1.20;0.73;;;7.50;88.50;;;;;;9962036;28;20046;-72
2022/02/16 01:34:08;;;;;;;0.93;0.82;;;7.60;88.40;;;;;;9970441;28;20034;-73
2022/02/16 01:38:59;;;;;;;5.07;1.02;;;7.60;88.60;;;;;;9973270;28;20448;-74
2022/02/16 01:43:53;;;;;;;1.10;0.45;;;7.60;89.00;;;;;;9972509;28;20054;-72
2022/02/16 01:48:44;;;;;;;1.60;0.75;;;7.60;88.50;;;;;;9953427;28;20030;-73
2022/02/16 01:53:35;;;;;;;0.90;0.60;;;7.70;88.60;;;;;;9972659;28;20180;-73
2022/02/16 01:58:28;;;;;;;2.22;0.55;;;7.70;88.60;;;;;;9971218;28;20619;-70
2022/02/16 02:03:18;;;;;;;1.75;0.63;;;7.70;88.50;;;;;;9969993;28;20054;-72
2022/02/16 02:08:10;;;;;;;1.13;0.40;;;7.80;88.50;;;;;;9971344;28;20018;-74
2022/02/16 02:13:02;;;;;;;7.32;0.73;;;7.80;88.50;;;;;;9956206;28;20509;-71
2022/02/16 02:17:53;;;;;;;0.40;0.32;;;7.80;88.50;;;;;;9971620;28;20118;-71
2022/02/16 02:22:43;;;;;;;0.88;0.50;;;7.80;88.50;;;;;;9970174;28;20234;-72
2022/02/16 02:27:34;;;;;;;3.50;0.77;;;7.80;88.50;;;;;;9961414;28;20348;-72
2022/02/16 02:32:25;;;;;;;0.63;0.28;;;7.80;88.50;;;;;;9971841;28;20100;-73
2022/02/16 02:37:15;;;;;;;0.47;0.40;;;7.90;88.50;;;;;;9971624;28;20069;-73
2022/02/16 02:42:06;;;;;;;1.50;0.50;;;7.90;88.50;;;;;;9970692;28;20276;-72
2022/02/16 02:46:57;;;;;;;0.98;0.50;;;7.90;88.40;;;;;;9979831;28;20030;-71
2022/02/16 02:51:48;;;;;;;1.25;0.68;;;7.90;88.40;;;;;;9972004;28;20029;-73
2022/02/16 02:56:38;;;;;;;0.88;0.55;;;7.90;88.40;;;;;;9978566;28;20028;-72
2022/02/16 03:01:29;;;;;;;1.38;0.60;;;7.90;88.40;;;;;;9978235;28;20042;-71
2022/02/16 03:06:20;;;;;;;2.17;0.60;;;7.90;88.40;;;;;;9982641;28;20038;-73
2022/02/16 03:11:10;;;;;;;0.85;0.30;;;7.90;88.50;;;;;;9986212;28;20018;-73
2022/02/16 03:16:01;;;;;;;3.85;0.47;;;7.80;88.60;;;;;;9984989;28;20038;-72
2022/02/16 03:20:53;;;;;;;2.38;0.50;;;7.90;88.60;;;;;;9981426;28;20074;-71
2022/02/16 03:25:44;;;;;;;0.65;0.30;;;7.90;88.50;;;;;;9978588;28;20034;-72
2022/02/16 03:30:35;;;;;;;1.27;0.30;;;7.80;88.60;;;;;;9978240;28;20022;-72
2022/02/16 03:35:25;;;;;;;1.40;0.47;;;7.90;88.80;;;;;;9965729;28;20413;-72
2022/02/16 03:40:16;;;;;;;2.10;0.85;;;7.80;88.80;;;;;;9963125;28;20030;-73
2022/02/16 03:45:07;;;;;;;2.78;0.40;;;7.80;88.90;;;;;;9983455;28;20511;-72
2022/02/16 03:49:58;;;;;;;2.03;0.40;;;7.80;88.90;;;;;;9976402;28;20093;-71
2022/02/16 03:54:48;;;;;;;1.02;0.47;;;7.80;89.00;;;;;;9974405;28;20351;-71
2022/02/16 03:59:39;;;;;;;1.75;0.40;;;8.40;89.20;;;;;;9977728;28;20170;-72
2022/02/16 04:04:30;;;;;;;0.43;0.38;;;7.80;89.00;;;;;;9975103;28;20520;-72
2022/02/16 04:09:21;;;;;;;0.50;0.32;;;7.80;89.00;;;;;;9976057;28;20698;-72
2022/02/16 04:14:11;;;;;;;0.47;0.28;;;7.80;89.10;;;;;;9963218;28;20093;-73
2022/02/16 04:19:02;;;;;;;0.63;0.40;;;7.80;89.30;;;;;;9980996;28;20312;-73
2022/02/16 04:23:53;;;;;;;0.57;0.57;;;8.10;89.30;;;;;;9973012;28;20105;-72
2022/02/16 04:28:43;;;;;;;0.70;0.30;;;7.90;89.10;;;;;;9974801;28;20282;-72
2022/02/16 04:33:34;;;;;;;3.13;0.50;;;8.00;89.10;;;;;;9977305;28;20062;-72
2022/02/16 04:38:25;;;;;;;0.30;0.20;;;8.00;89.30;;;;;;9980768;28;20030;-71
2022/02/16 04:43:15;;;;;;;0.90;0.50;;;8.00;89.30;;;;;;9991820;28;20038;-71
2022/02/16 04:48:06;;;;;;;2.88;0.40;;;8.10;89.30;;;;;;9977022;28;20129;-72
2022/02/16 04:52:57;;;;;;;0.52;0.38;;;8.10;89.50;;;;;;9971149;28;20026;-71
2022/02/16 04:57:48;;;;;;;0.17;0.17;;;8.10;89.60;;;;;;9972426;28;20027;-72
2022/02/16 05:02:39;;;;;;;0.40;0.30;;;8.10;89.60;;;;;;9976983;28;20109;-71
2022/02/16 05:07:30;;;;;;;0.43;0.35;;;8.20;89.70;;;;;;9987805;28;20040;-71
2022/02/16 05:12:20;;;;;;;1.23;0.60;;;8.20;90.10;;;;;;9986926;28;20118;-70
2022/02/16 05:17:11;;;;;;;0.25;0.25;;;8.20;90.00;;;;;;9976624;28;20444;-72
2022/02/16 05:22:02;;;;;;;1.13;0.30;;;8.20;89.80;;;;;;9987124;28;20038;-71
2022/02/16 05:26:53;;;;;;;0.57;0.28;;;8.20;90.00;;;;;;9974603;28;20035;-72
2022/02/16 05:31:43;;;;;;;0.10;0.10;;;8.30;90.00;;;;;;9966142;28;20533;-71
2022/02/16 05:36:34;;;;;;;3.88;0.30;;;8.30;90.00;;;;;;9981611;28;20037;-71
2022/02/16 05:41:25;;;;;;;0.45;0.40;;;8.30;90.10;;;;;;9980303;28;20038;-71
2022/02/16 05:46:16;;;;;;;1.55;0.30;;;8.30;90.10;;;;;;9952545;28;20118;-71
2022/02/16 05:51:07;;;;;;;0.20;0.20;;;8.30;90.30;;;;;;9978464;28;20022;-70
2022/02/16 05:55:57;;;;;;;0.38;0.20;;;8.30;90.30;;;;;;9953615;28;20034;-70
2022/02/16 06:00:48;;;;;;;0.30;0.28;;;8.30;90.20;;;;;;9957419;28;20047;-71
2022/02/16 06:05:39;;;;;;;0.60;0.10;;;8.30;90.40;;;;;;9970509;28;20030;-71
2022/02/16 06:10:30;;;;;;;0.52;0.22;;;8.30;90.40;;;;;;9970844;28;20030;-69
2022/02/16 06:15:21;;;;;;;0.90;0.40;;;8.30;90.50;;;;;;9970748;28;20031;-70
2022/02/16 06:20:12;;;;;;;3.38;1.48;;;8.20;90.60;;;;;;9971048;28;20032;-70
2022/02/16 06:25:03;;;;;;;0.30;0.30;;;8.20;90.70;;;;;;9970197;28;20038;-70
2022/02/16 06:29:54;;;;;;;0.45;0.10;;;8.20;90.80;;;;;;9977686;28;20030;-71
2022/02/16 06:34:45;;;;;;;0.50;0.20;;;8.20;90.90;;;;;;9978082;28;20053;-69
2022/02/16 06:39:35;;;;;;;0.25;0.20;;;8.20;90.90;;;;;;9988256;28;20026;-70
2022/02/16 06:44:26;;;;;;;1.48;0.30;;;8.20;90.90;;;;;;9976541;28;20042;-70
2022/02/16 06:49:17;;;;;;;0.20;0.20;;;8.20;91.10;;;;;;9958186;28;20412;-69
2022/02/16 06:54:07;;;;;;;0.60;0.17;;;8.20;91.10;;;;;;9975525;28;20520;-70
2022/02/16 06:58:58;;;;;;;0.28;0.25;;;8.20;91.10;;;;;;9979249;28;20026;-69
2022/02/16 07:03:49;;;;;;;0.20;0.20;;;8.20;91.00;;;;;;9977219;28;20481;-70
2022/02/16 07:08:40;;;;;;;0.43;0.30;;;8.20;91.30;;;;;;9977809;28;20029;-70
2022/02/16 07:13:30;;;;;;;1.02;0.40;;;8.20;91.30;;;;;;9977165;28;20477;-70
2022/02/16 07:18:21;;;;;;;0.77;0.30;;;8.20;91.30;;;;;;9977602;28;20019;-70
2022/02/16 07:23:12;;;;;;;0.20;0.20;;;8.30;91.40;;;;;;9977831;28;20674;-70
2022/02/16 07:28:04;;;;;;;0.28;0.20;;;8.30;91.60;;;;;;9976087;28;20038;-70
2022/02/16 07:32:55;;;;;;;0.85;0.32;;;8.30;91.40;;;;;;9972999;28;20121;-67
2022/02/16 07:37:46;;;;;;;0.20;0.10;;;8.30;91.60;;;;;;9975095;28;20109;-67
2022/02/16 07:42:36;;;;;;;0.20;0.20;;;8.30;91.70;;;;;;9975691;28;20042;-68
2022/02/16 07:47:28;;;;;;;0.30;0.30;;;8.30;91.90;;;;;;9973347;28;20041;-69
2022/02/16 07:52:18;;;;;;;1.17;0.45;;;8.30;91.90;;;;;;9975999;28;20033;-66
2022/02/16 07:57:09;;;;;;;0.22;0.22;;;8.30;91.90;;;;;;9977287;28;20026;-70
2022/02/16 08:02:00;;;;;;;1.00;0.50;;;8.40;91.80;;;;;;9974157;28;20226;-64
2022/02/16 08:06:50;;;;;;;0.60;0.40;;;8.40;91.90;;;;;;9974197;28;20026;-65
2022/02/16 08:11:43;;;;;;;0.40;0.38;;;8.40;92.00;;;;;;9954065;28;20030;-66
2022/02/16 08:16:34;;;;;;;0.20;0.20;;;8.40;92.10;;;;;;9955470;28;20017;-68
2022/02/16 08:21:25;;;;;;;0.22;0.22;;;8.40;92.20;;;;;;9972361;28;20034;-64
2022/02/16 08:26:16;;;;;;;0.95;0.35;;;8.40;92.10;;;;;;9955673;28;20176;-62
2022/02/16 08:31:07;;;;;;;0.20;0.20;;;8.50;92.20;;;;;;9975579;28;20049;-69
2022/02/16 08:35:57;;;;;;;0.45;0.22;;;8.50;92.20;;;;;;9977981;28;20022;-69
2022/02/16 08:40:48;;;;;;;1.55;0.50;;;8.60;92.30;;;;;;9973341;28;20037;-65
2022/02/16 08:45:39;;;;;;;0.40;0.20;;;8.70;92.40;;;;;;9973070;28;20793;-68
2022/02/16 08:50:30;;;;;;;0.30;0.25;;;8.70;92.30;;;;;;9972784;28;20037;-67
2022/02/16 08:55:20;;;;;;;1.55;0.38;;;8.80;92.20;;;;;;9973676;28;20114;-68
2022/02/16 09:00:11;;;;;;;0.28;0.20;;;8.90;92.20;;;;;;9971707;28;20584;-62
2022/02/16 09:05:03;;;;;;;0.17;0.17;;;8.90;92.40;;;;;;9972072;28;20042;-64
2022/02/16 09:09:55;;;;;;;2.15;0.38;;;9.10;92.30;;;;;;9970747;28;20030;-66
2022/02/16 09:14:45;;;;;;;0.43;0.40;;;9.10;92.30;;;;;;9969812;28;20085;-68
2022/02/16 09:19:37;;;;;;;1.40;0.38;;;9.20;92.30;;;;;;9956165;28;20401;-66
2022/02/16 09:24:28;;;;;;;0.22;0.22;;;9.20;92.30;;;;;;9971012;28;20130;-64
2022/02/16 09:29:20;;;;;;;0.45;0.30;;;9.20;92.20;;;;;;9970543;28;20034;-63
2022/02/16 09:34:11;;;;;;;0.25;0.25;;;9.20;92.40;;;;;;9972862;28;20030;-65
2022/02/16 09:39:02;;;;;;;1.20;1.00;;;9.30;92.40;;;;;;9970602;28;20493;-65
2022/02/16 09:43:53;;;;;;;1.48;0.57;;;9.30;92.40;;;;;;9969997;28;20128;-66
2022/02/16 09:48:44;;;;;;;0.50;0.30;;;9.40;92.40;;;;;;9971537;28;20489;-67
2022/02/16 09:53:36;;;;;;;1.20;0.63;;;9.40;92.40;;;;;;9970399;28;20053;-67
2022/02/16 09:58:27;;;;;;;0.32;0.20;;;9.30;92.40;;;;;;9971089;28;20493;-67
2022/02/16 10:03:17;;;;;;;0.43;0.28;;;9.40;92.40;;;;;;9975429;28;20058;-64
2022/02/16 10:08:08;;;;;;;0.28;0.28;;;9.40;92.40;;;;;;9979380;28;20061;-65
2022/02/16 10:12:59;;;;;;;0.40;0.20;;;9.50;92.30;;;;;;9978430;28;20093;-68
2022/02/16 10:18:05;;;;;;;0.98;0.40;;;9.50;92.40;;;;;;9978213;28;20408;-67
2022/02/16 10:22:56;;;;;;;0.40;0.28;;;9.70;92.40;;;;;;9978575;28;20809;-67
2022/02/16 10:28:19;;;;;;;1.23;1.13;;;9.70;92.40;;;;;;9977714;28;20161;-72
2022/02/16 10:33:43;;;;;;;1.30;0.75;;;9.80;92.40;;;;;;9977978;28;20085;-65
2022/02/16 10:39:01;;;;;;;0.57;0.50;;;9.80;92.40;;;;;;9954331;28;20046;-65
2022/02/16 10:43:52;;;;;;;0.57;0.22;;;9.90;92.40;;;;;;9975386;28;20049;-64
2022/02/16 10:48:44;;;;;;;1.77;0.68;;;9.90;92.40;;;;;;9977031;28;20022;-63
2022/02/16 10:53:34;;;;;;;1.02;0.40;;;9.90;92.40;;;;;;9977906;28;20509;-67
2022/02/16 10:58:27;;;;;;;0.57;0.30;;;9.90;92.40;;;;;;9961431;28;20118;-64
2022/02/16 11:03:34;;;;;;;2.70;0.40;;;10.00;92.40;;;;;;9976493;28;20149;-64
2022/02/16 11:08:28;;;;;;;1.60;0.50;;;10.00;92.40;;;;;;9976836;28;20026;-63
2022/02/16 11:13:26;;;;;;;2.22;0.50;;;10.00;92.40;;;;;;9956563;28;20431;-64
2022/02/16 11:18:21;;;;;;;0.60;0.40;;;10.10;92.40;;;;;;9966580;28;20045;-68
2022/02/16 11:23:14;;;;;;;1.13;0.40;;;10.20;92.40;;;;;;9974467;28;20048;-64
2022/02/16 11:28:11;;;;;;;0.77;0.43;;;10.10;92.40;;;;;;9976594;28;20031;-67
2022/02/16 11:33:16;;;;;;;0.75;0.60;;;9.90;92.40;;;;;;9985254;28;20113;-66
2022/02/16 11:38:12;;;;;;;0.90;0.35;;;10.30;92.50;;;;;;9981547;28;20038;-68
2022/02/16 11:43:03;;;;;;;2.05;0.70;;;10.30;92.40;;;;;;9975920;28;20070;-63
2022/02/16 11:47:54;;;;;;;0.52;0.50;;;10.30;92.50;;;;;;9976576;28;20097;-68
2022/02/16 11:52:50;;;;;;;2.28;0.50;;;10.00;92.40;;;;;;9975489;28;20025;-66
2022/02/16 11:57:44;;;;;;;1.17;0.60;;;10.30;92.60;;;;;;9977986;28;20497;-65
2022/02/16 12:03:02;;;;;;;1.23;0.50;;;10.40;92.70;;;;;;9979075;28;20066;-67
2022/02/16 12:08:14;;;;;;;0.52;0.50;;;10.40;92.70;;;;;;9975067;28;20088;-69
2022/02/16 12:13:05;;;;;;;2.08;0.90;;;10.50;92.70;;;;;;9993562;28;20037;-66
2022/02/16 12:17:57;;;;;;;1.05;0.50;;;10.50;92.60;;;;;;9977908;28;20050;-66
2022/02/16 12:22:47;;;;;;;1.13;0.50;;;10.60;92.70;;;;;;9976611;28;20038;-66
2022/02/16 12:27:38;;;;;;;1.00;0.50;;;10.70;92.70;;;;;;9984600;28;20023;-68
2022/02/16 12:32:30;;;;;;;1.58;0.70;;;10.70;92.70;;;;;;9975849;28;20542;-67
2022/02/16 12:37:21;;;;;;;0.90;0.50;;;10.70;92.70;;;;;;9967953;28;20563;-68
2022/02/16 12:42:13;;;;;;;0.55;0.40;;;10.80;92.70;;;;;;9982566;28;20092;-67
2022/02/16 12:47:06;;;;;;;3.75;0.60;;;10.90;92.70;;;;;;9968658;28;20088;-65
2022/02/16 12:51:58;;;;;;;1.23;0.30;;;10.90;92.70;;;;;;9972217;28;20031;-65
2022/02/16 12:56:56;;;;;;;1.02;0.47;;;10.90;92.70;;;;;;9972101;28;20018;-65
2022/02/16 13:01:54;;;;;;;0.90;0.63;;;10.90;92.70;;;;;;9972959;28;20046;-64
2022/02/16 13:06:54;;;;;;;0.82;0.50;;;11.00;92.80;;;;;;9972593;28;20177;-64
2022/02/16 13:11:57;;;;;;;0.57;0.50;;;11.00;92.70;;;;;;9968417;28;20030;-66
2022/02/16 13:17:06;;;;;;;0.98;0.40;;;11.00;92.70;;;;;;9972445;28;20076;-66
2022/02/16 13:22:04;;;;;;;1.17;0.40;;;11.10;92.80;;;;;;9971454;28;20034;-68
2022/02/16 13:27:02;;;;;;;0.25;0.22;;;11.20;92.60;;;;;;9955601;28;20034;-63
2022/02/16 13:31:53;;;;;;;1.65;0.40;;;11.20;92.60;;;;;;9969542;28;20478;-70
2022/02/16 13:36:44;;;;;;;1.67;0.30;;;11.30;92.60;;;;;;9950114;28;20039;-64
2022/02/16 13:41:35;;;;;;;0.73;0.30;;;11.30;92.60;;;;;;9966302;28;20038;-62
2022/02/16 13:46:41;;;;;;;0.35;0.20;;;11.30;92.60;;;;;;9971213;28;20560;-65
2022/02/16 13:51:32;;;;;;;;;;;11.40;92.50;;;;;;9970563;28;20035;-65
2022/02/16 13:56:23;;;;;;;0.45;0.40;;;11.40;92.50;;;;;;9972204;28;19917;-67
2022/02/16 14:01:16;;;;;;;0.20;0.20;;;11.50;92.40;;;;;;9954201;28;20047;-63
2022/02/16 14:06:10;;;;;;;0.50;0.50;;;11.50;92.50;;;;;;9973278;28;20022;-65
2022/02/16 14:11:01;;;;;;;0.55;0.20;;;11.40;92.50;;;;;;9971285;28;20025;-66
2022/02/16 14:15:53;;;;;;;0.30;0.30;;;11.50;92.50;;;;;;9970359;28;20031;-71
2022/02/16 14:20:43;;;;;;;0.73;0.40;;;11.50;92.60;;;;;;9954168;28;20030;-68
2022/02/16 14:25:34;;;;;;;0.25;0.20;;;11.50;92.50;;;;;;9970768;28;20049;-66
2022/02/16 14:30:25;;;;;;;0.88;0.38;;;11.60;92.60;;;;;;9970433;28;20069;-68
2022/02/16 14:35:17;;;;;;;1.40;0.80;;;11.60;92.50;;;;;;9970451;28;20717;-65
2022/02/16 14:40:13;;;;;;;0.60;0.45;;;11.70;92.50;;;;;;9951049;28;20030;-65
2022/02/16 14:45:10;;;;;;;1.60;0.68;;;11.80;92.40;;;;;;9969386;28;20034;-70
2022/02/16 14:50:01;;;;;;;1.55;1.10;;;11.80;92.40;;;;;;9977351;28;20251;-64
2022/02/16 14:54:52;;;;;;;1.58;0.73;;;11.90;92.40;;;;;;9963333;28;20346;-68
2022/02/16 14:59:43;;;;;;;1.35;0.70;;;11.90;92.40;;;;;;9961439;28;20034;-66
2022/02/16 15:04:36;;;;;;;0.77;0.50;;;11.90;92.70;;;;;;9977250;28;20046;-64
2022/02/16 15:09:26;;;;;;;2.72;1.00;;;11.90;92.40;;;;;;9968465;28;20022;-62
2022/02/16 15:14:17;;;;;;;0.35;0.30;;;11.90;92.40;;;;;;9975174;28;20034;-69
2022/02/16 15:19:08;;;;;;;0.80;0.38;;;11.90;92.30;;;;;;9975170;28;20079;-69
2022/02/16 15:24:01;;;;;;;0.57;0.45;;;12.00;92.40;;;;;;9956229;28;20058;-65
2022/02/16 15:28:52;;;;;;;1.15;0.38;;;11.90;92.40;;;;;;9973963;28;20096;-65
2022/02/16 15:33:43;;;;;;;2.58;0.90;;;12.00;92.40;;;;;;9973792;28;20080;-72
2022/02/16 15:38:34;;;;;;;2.60;1.38;;;12.00;92.40;;;;;;9974182;28;20450;-68
2022/02/16 15:43:25;;;;;;;2.75;1.27;;;11.90;92.50;;;;;;9973712;28;20521;-65
2022/02/16 15:48:16;;;;;;;1.60;1.08;;;11.90;92.50;;;;;;9975812;28;20382;-65
2022/02/16 15:53:12;;;;;;;3.13;1.20;;;11.90;92.40;;;;;;9964617;28;20096;-66
2022/02/16 15:58:03;;;;;;;1.85;1.10;;;11.90;92.50;;;;;;9974742;28;20386;-68
2022/02/16 16:02:56;;;;;;;0.80;0.50;;;11.90;92.60;;;;;;9959576;28;20141;-64
2022/02/16 16:07:48;;;;;;;0.80;0.40;;;11.80;92.70;;;;;;9972546;28;20053;-66
2022/02/16 16:12:38;;;;;;;0.57;0.57;;;11.80;92.70;;;;;;9976979;28;20469;-65
2022/02/16 16:17:29;;;;;;;1.80;0.60;;;11.80;92.80;;;;;;9974702;28;20034;-67
2022/02/16 16:22:20;;;;;;;0.75;0.75;;;11.70;92.80;;;;;;9973785;28;20096;-72
2022/02/16 16:27:10;;;;;;;0.75;0.40;;;11.70;92.80;;;;;;9969872;28;20030;-67
2022/02/16 16:32:01;;;;;;;1.40;0.75;;;11.80;92.90;;;;;;9971431;28;20050;-68
2022/02/16 16:36:55;;;;;;;0.52;0.40;;;11.70;92.90;;;;;;9975331;28;20113;-65
2022/02/16 16:41:46;;;;;;;2.22;1.05;;;11.70;93.00;;;;;;9973302;28;20074;-67
2022/02/16 16:46:37;;;;;;;0.77;0.43;;;11.70;93.00;;;;;;9974255;28;20065;-65
2022/02/16 16:51:32;;;;;;;2.05;0.65;;;11.60;93.10;;;;;;9972951;28;20084;-66
2022/02/16 16:56:23;;;;;;;0.63;0.50;;;11.70;93.00;;;;;;9969507;28;20041;-66
2022/02/16 17:01:17;;;;;;;1.20;0.52;;;11.80;93.10;;;;;;9971612;28;20054;-64
2022/02/16 17:06:09;;;;;;;0.93;0.65;;;11.80;93.00;;;;;;9971686;28;20026;-66
2022/02/16 17:10:59;;;;;;;0.50;0.47;;;12.00;93.30;;;;;;9974274;28;20029;-66
2022/02/16 17:15:50;;;;;;;0.50;0.50;;;12.10;93.00;;;;;;9974582;28;20030;-65
2022/02/16 17:20:41;;;;;;;0.40;0.30;;;12.10;93.00;;;;;;9980877;28;20489;-67
2022/02/16 17:25:33;;;;;;;0.50;0.50;;;12.20;93.10;;;;;;9971935;28;20046;-65
2022/02/16 17:30:23;;;;;;;2.42;0.63;;;12.20;93.10;;;;;;9972831;28;20054;-68
2022/02/16 17:35:14;;;;;;;0.93;0.75;;;12.10;93.20;;;;;;9981558;28;20493;-71
2022/02/16 17:40:06;;;;;;;1.05;0.40;;;11.90;93.30;;;;;;9973468;28;20022;-67
2022/02/16 17:45:03;;;;;;;1.83;0.95;;;11.90;93.40;;;;;;9972104;28;20042;-70
2022/02/16 17:49:54;;;;;;;0.77;0.50;;;11.90;93.40;;;;;;9954550;28;20030;-68
2022/02/16 17:54:47;;;;;;;0.82;0.52;;;12.00;93.40;;;;;;9972379;28;20109;-71
2022/02/16 17:59:38;;;;;;;1.25;0.70;;;11.90;93.40;;;;;;9939738;28;20697;-65
2022/02/16 18:04:33;;;;;;;0.85;0.77;;;11.90;93.50;;;;;;9957618;28;20278;-68
2022/02/16 18:09:24;;;;;;;1.48;1.35;;;11.80;93.50;;;;;;9966514;28;20093;-62
2022/02/16 18:14:15;;;;;;;0.77;0.60;;;11.70;93.60;;;;;;9972353;28;20026;-69
2022/02/16 18:19:06;;;;;;;2.13;0.60;;;11.70;93.80;;;;;;9971040;28;20030;-66
2022/02/16 18:23:58;;;;;;;1.58;0.80;;;11.70;93.80;;;;;;9971481;28;20573;-64
2022/02/16 18:28:49;;;;;;;1.88;0.57;;;11.70;93.80;;;;;;9975509;28;20091;-66
2022/02/16 18:33:40;;;;;;;1.13;0.70;;;11.80;93.90;;;;;;9959690;28;20034;-66
2022/02/16 18:38:32;;;;;;;1.02;0.50;;;11.80;93.90;;;;;;9978220;28;20638;-65
2022/02/16 18:43:22;;;;;;;1.65;0.90;;;11.80;93.90;;;;;;9977098;28;20118;-65
2022/02/16 18:48:13;;;;;;;3.22;0.50;;;11.70;94.00;;;;;;9976792;28;20255;-66
2022/02/16 18:53:04;;;;;;;0.52;0.52;;;11.80;94.00;;;;;;9974743;28;20038;-64
2022/02/16 18:57:55;;;;;;;2.13;0.70;;;11.80;93.90;;;;;;9976825;28;20388;-64
2022/02/16 19:02:46;;;;;;;0.70;0.40;;;11.80;93.90;;;;;;9975750;28;20050;-67
2022/02/16 19:07:36;;;;;;;1.55;0.57;;;11.80;94.10;;;;;;9977284;28;20639;-67
2022/02/16 19:12:27;;;;;;;1.25;0.50;;;11.80;94.00;;;;;;9964128;28;20516;-63
2022/02/16 19:17:18;;;;;;;0.93;0.40;;;11.80;94.00;;;;;;9979419;28;20129;-62
2022/02/16 19:22:09;;;;;;;0.88;0.50;;;11.90;94.00;;;;;;9959862;28;20034;-61
2022/02/16 19:27:00;;;;;;;0.95;0.57;;;11.90;94.00;;;;;;9977322;28;20330;-61
2022/02/16 19:31:51;;;;;;;0.63;0.47;;;11.90;94.00;;;;;;9975939;28;20030;-61
2022/02/16 19:36:42;;;;;;;0.88;0.55;;;12.00;94.10;;;;;;9977162;28;20096;-63
2022/02/16 19:41:33;;;;;;;0.40;0.40;;;12.00;94.20;;;;;;9961222;28;20042;-63
2022/02/16 19:46:24;;;;;;;0.88;0.50;;;12.00;94.20;;;;;;9976423;28;20137;-63
2022/02/16 19:51:14;;;;;;;1.73;0.88;;;12.00;94.20;;;;;;9975505;28;20146;-64
2022/02/16 19:56:05;;;;;;;0.98;0.40;;;12.00;94.20;;;;;;9975551;28;20157;-67
2022/02/16 20:00:56;;;;;;;0.80;0.40;;;12.10;94.40;;;;;;9975035;28;20815;-65
2022/02/16 20:05:46;;;;;;;0.63;0.30;;;12.00;94.30;;;;;;9974090;28;20085;-64
2022/02/16 20:10:37;;;;;;;1.05;0.40;;;12.10;94.50;;;;;;9975379;28;20026;-65
2022/02/16 20:15:28;;;;;;;0.50;0.30;;;12.10;94.50;;;;;;9975090;28;20076;-65
2022/02/16 20:20:22;;;;;;;0.70;0.40;;;12.10;94.50;;;;;;9970146;28;20760;-65
2022/02/16 20:25:14;;;;;;;0.52;0.30;;;12.10;94.60;;;;;;9970203;28;20128;-64
2022/02/16 20:30:06;;;;;;;0.43;0.20;;;12.10;94.60;;;;;;9972326;28;20113;-66
2022/02/16 20:34:58;;;;;;;1.55;0.50;;;12.10;94.60;;;;;;9974311;28;20041;-65
2022/02/16 20:39:48;;;;;;;0.68;0.35;;;12.10;94.80;;;;;;9972622;28;20022;-65
2022/02/16 20:44:39;;;;;;;0.57;0.50;;;12.20;94.70;;;;;;9972411;28;20129;-65
2022/02/16 20:49:30;;;;;;;1.05;0.40;;;12.20;94.80;;;;;;9971662;28;20018;-66
2022/02/16 20:54:22;;;;;;;0.85;0.40;;;12.20;95.00;;;;;;9971425;28;20041;-65
2022/02/16 20:59:14;;;;;;;1.63;0.60;;;12.20;95.00;;;;;;9971726;28;20041;-66
2022/02/16 21:04:05;;;;;;;0.32;0.25;;;12.30;94.90;;;;;;9969952;28;20050;-66
2022/02/16 21:08:55;;;;;;;0.70;0.38;;;12.30;95.00;;;;;;9970833;28;20034;-66
2022/02/16 21:13:46;;;;;;;0.20;0.20;;;12.30;94.90;;;;;;9973698;28;20163;-67
2022/02/16 21:18:38;;;;;;;0.85;0.38;;;12.30;94.90;;;;;;9956426;28;20030;-68
2022/02/16 21:23:30;;;;;;;0.25;0.15;;;12.40;95.00;;;;;;9973166;28;20223;-67
2022/02/16 21:28:21;;;;;;;0.32;0.20;;;12.50;94.90;;;;;;9973284;28;20075;-66
2022/02/16 21:33:12;;;;;;;1.60;0.40;;;12.50;95.00;;;;;;9971804;28;20175;-68
2022/02/16 21:38:05;;;;;;;0.22;0.22;;;12.50;94.90;;;;;;9969063;28;20449;-66
2022/02/16 21:42:55;;;;;;;0.10;0.10;;;12.60;94.90;;;;;;9968482;28;20190;-67
2022/02/16 21:47:47;;;;;;;2.33;0.50;;;12.60;94.90;;;;;;9971424;28;20113;-66
2022/02/16 21:52:37;;;;;;;0.38;0.25;;;12.60;94.90;;;;;;9955625;28;20042;-67
2022/02/16 21:57:31;;;;;;;0.60;0.60;;;12.60;94.90;;;;;;9974508;28;20100;-67
2022/02/16 22:02:21;;;;;;;0.70;0.43;;;12.60;94.90;;;;;;9978971;28;20042;-66
2022/02/16 22:07:12;;;;;;;0.47;0.25;;;12.60;95.00;;;;;;9983204;28;20314;-67
2022/02/16 22:12:32;;;;;;;0.40;0.28;;;12.70;95.00;;;;;;9988768;28;20091;-65
2022/02/16 22:17:14;;;;;;;0.40;0.25;;;12.90;94.90;;;;;;9981566;28;20056;-67
2022/02/16 22:22:04;;;;;;;0.22;0.15;;;13.10;94.80;;;;;;9976265;28;20634;-67
2022/02/16 22:26:55;;;;;;;0.65;0.65;;;13.20;94.60;;;;;;9979840;28;20029;-66
2022/02/16 22:31:46;;;;;;;1.10;0.22;;;13.30;94.60;;;;;;9960444;28;20278;-67
2022/02/16 22:36:36;;;;;;;0.30;0.30;;;13.40;94.50;;;;;;9976113;28;20121;-67
2022/02/16 22:41:27;;;;;;;0.10;0.10;;;13.60;94.40;;;;;;9978071;28;20038;-67
2022/02/16 22:46:18;;;;;;;0.00;0.00;;;13.70;94.30;;;;;;9989653;28;20035;-68
2022/02/16 22:51:08;;;;;;;0.20;0.10;;;13.70;94.10;;;;;;9982429;28;20014;-67
2022/02/16 22:55:59;;;;;;;0.20;0.20;;;14.00;93.60;;;;;;9965465;28;20125;-65
2022/02/16 23:00:58;;;;;;;0.00;0.00;;;14.10;93.20;;;;;;9981112;28;20110;-67
2022/02/16 23:10:58;;;;;;;0.10;0.10;;;14.30;92.70;;;;;;9985800;28;20037;-67
2022/02/16 23:15:55;;;;;;;0.00;0.00;;;14.20;92.60;;;;;;9978327;28;20029;-68
2022/02/16 23:20:46;;;;;;;0.73;0.17;;;14.20;92.60;;;;;;9989365;28;20088;-66
2022/02/16 23:25:36;;;;;;;0.65;0.30;;;14.30;92.40;;;;;;9989306;28;20034;-67
2022/02/16 23:30:27;;;;;;;0.13;0.03;;;14.30;92.40;;;;;;9978590;28;20140;-68
2022/02/16 23:35:18;;;;;;;0.95;0.25;;;14.30;92.40;;;;;;9981153;28;20488;-68
2022/02/16 23:40:09;;;;;;;0.40;0.30;;;14.30;92.20;;;;;;9982052;28;20052;-67
2022/02/16 23:45:00;;;;;;;0.52;0.20;;;14.30;92.30;;;;;;9977914;28;20088;-67
2022/02/16 23:49:51;;;;;;;0.90;0.20;;;14.30;92.10;;;;;;9989225;28;20031;-67
2022/02/16 23:54:41;;;;;;;0.38;0.20;;;14.30;92.00;;;;;;9978127;28;20030;-67
2022/02/16 23:59:34;;;;;;;0.17;0.10;;;14.30;91.90;;;;;;9972002;28;20038;-68
